^^
Grace C. Lehan Memorial Weather Station Historical Data
Daily Summary for June 19, 2021 Units:  English    Metric   Both
Daily Weekly Monthly Yearly
  High: Low: Average:
Temperature: 90.5 °F 68.2 °F 76.9 °F
Dew Point: 74.8 °F 59.8 °F 67 °F
Humidity: 91.7% 47.4% 73%
Wind Speed: 3.4mph 0mph 0.4mph
Wind Gust: 13mph - -
Wind- - WSW
Pressure: 29.80 in 29.65 in -
Precipitation: 0.45 in    
 
 
Tabular Data for June 19, 2021
Time Temperature Dew Point Pressure Wind Wind Speed Wind Gust Humidity Rainfall Rate (Hourly) solar
00:00 70.6 °F 60 °F 29.80 in Calm   1 mph 69% 0.00 in 0 W/m2
00:09 70.5 °F 60.2 °F 29.80 in Calm     69.9% 0.00 in 0 W/m2
00:14 70.4 °F 60.2 °F 29.80 in Calm   1 mph 70% 0.00 in 0 W/m2
00:18 70.4 °F 60.1 °F 29.79 in Calm   1 mph 70% 0.00 in 0 W/m2
00:24 70.3 °F 60.1 °F 29.79 in Calm   1 mph 70% 0.00 in 0 W/m2
00:29 70.3 °F 60.1 °F 29.79 in Calm   1 mph 70% 0.00 in 0 W/m2
00:34 70.3 °F 60 °F 29.79 in Calm   1 mph 70% 0.00 in 0 W/m2
00:39 70.2 °F 60 °F 29.79 in Calm     70% 0.00 in 0 W/m2
00:44 70.1 °F 59.9 °F 29.79 in Calm     70% 0.00 in 0 W/m2
00:49 70 °F 59.8 °F 29.79 in Calm     70% 0.00 in 0 W/m2
00:54 69.9 °F 60 °F 29.79 in Calm     70.8% 0.00 in 0 W/m2
00:59 69.8 °F 60 °F 29.79 in SW 0.1 mph 2 mph 71% 0.00 in 0 W/m2
01:04 69.7 °F 59.9 °F 29.79 in Calm   2 mph 71% 0.00 in 0 W/m2
01:09 69.7 °F 60 °F 29.79 in Calm     71.4% 0.00 in 0 W/m2
01:14 69.6 °F 60.2 °F 29.79 in Calm     72% 0.00 in 0 W/m2
01:19 69.6 °F 60.2 °F 29.80 in Calm     72% 0.00 in 0 W/m2
01:24 69.5 °F 60.4 °F 29.80 in SW 0.1 mph 3 mph 72.7% 0.00 in 0 W/m2
01:29 69.5 °F 60.5 °F 29.79 in Calm   3 mph 73% 0.00 in 0 W/m2
01:34 69.5 °F 60.5 °F 29.79 in Calm   3 mph 73% 0.00 in 0 W/m2
01:39 69.4 °F 60.7 °F 29.79 in Calm     73.9% 0.00 in 0 W/m2
01:44 69.4 °F 60.8 °F 29.79 in Calm     74% 0.00 in 0 W/m2
01:49 69.4 °F 60.8 °F 29.79 in Calm     74% 0.00 in 0 W/m2
01:54 69.4 °F 61 °F 29.79 in Calm     74.5% 0.00 in 0 W/m2
01:59 69.5 °F 60.9 °F 29.78 in SW 0.3 mph 5 mph 74.3% 0.00 in 0 W/m2
02:04 69.5 °F 60.9 °F 29.78 in Calm   5 mph 74% 0.00 in 0 W/m2
02:09 69.6 °F 61 °F 29.78 in SW 0.2 mph 3 mph 74% 0.00 in 0 W/m2
02:14 69.7 °F 61.1 °F 29.78 in Calm   3 mph 74% 0.00 in 0 W/m2
02:19 69.7 °F 61.2 °F 29.78 in Calm   3 mph 74.4% 0.00 in 0 W/m2
02:24 69.6 °F 61.3 °F 29.78 in Calm   3 mph 75% 0.00 in 0 W/m2
02:29 69.6 °F 61.3 °F 29.77 in Calm   3 mph 75% 0.00 in 0 W/m2
02:34 69.5 °F 61.2 °F 29.77 in Calm   3 mph 75% 0.00 in 0 W/m2
02:39 69.5 °F 61.2 °F 29.77 in Calm     75% 0.00 in 0 W/m2
02:44 69.4 °F 61.2 °F 29.77 in SW 0.1 mph 3 mph 75% 0.00 in 0 W/m2
02:49 69.5 °F 61.3 °F 29.76 in Calm   3 mph 75.2% 0.00 in 0 W/m2
02:54 69.5 °F 61.9 °F 29.76 in Calm   3 mph 76.9% 0.00 in 0 W/m2
02:59 69.5 °F 62.5 °F 29.76 in SW 0.1 mph 4 mph 78.7% 0.00 in 0 W/m2
03:04 69.2 °F 62.4 °F 29.76 in Calm   4 mph 79% 0.00 in 0 W/m2
03:09 68.9 °F 62.5 °F 29.76 in SW 0.3 mph 4 mph 80% 0.00 in 0 W/m2
03:14 68.7 °F 62.6 °F 29.76 in SSW 0.2 mph 5 mph 80.9% 0.00 in 0 W/m2
03:19 68.5 °F 62.4 °F 29.76 in Calm   5 mph 81% 0.00 in 0 W/m2
03:24 68.4 °F 62.3 °F 29.76 in Calm   5 mph 81% 0.00 in 0 W/m2
03:29 68.3 °F 62.5 °F 29.75 in Calm   5 mph 81.7% 0.00 in 0 W/m2
03:34 68.3 °F 62.6 °F 29.75 in SSW 0.7 mph 6 mph 82% 0.00 in 0 W/m2
03:39 68.2 °F 62.5 °F 29.75 in Calm   6 mph 81.9% 0.00 in 0 W/m2
03:44 68.2 °F 62.2 °F 29.75 in SW 0.2 mph 6 mph 81% 0.00 in 0 W/m2
03:49 68.2 °F 62.2 °F 29.75 in SW 0.1 mph 6 mph 81% 0.00 in 0 W/m2
03:54 68.2 °F 62.2 °F 29.74 in Calm   6 mph 81% 0.00 in 0 W/m2
03:59 68.2 °F 62 °F 29.74 in SW 0.5 mph 7 mph 80.5% 0.00 in 0 W/m2
04:00 68.3 °F 62.3 °F 29.74 in Calm   7 mph 81% 0.00 in 0 W/m2
04:09 68.3 °F 61.9 °F 29.74 in SW 0.2 mph 3 mph 80% 0.00 in 0 W/m2
04:14 68.4 °F 62 °F 29.74 in SW 0.1 mph 3 mph 80% 0.00 in 0 W/m2
04:19 68.4 °F 62 °F 29.74 in Calm   3 mph 80% 0.00 in 0 W/m2
04:24 68.4 °F 62 °F 29.74 in Calm   3 mph 80% 0.00 in 0 W/m2
04:29 68.4 °F 62 °F 29.74 in Calm   3 mph 80% 0.00 in 0 W/m2
04:34 68.4 °F 62 °F 29.74 in Calm   3 mph 80% 0.00 in 0 W/m2
04:39 68.4 °F 62 °F 29.73 in Calm     80% 0.00 in 0 W/m2
04:44 68.4 °F 62 °F 29.73 in Calm   1 mph 80% 0.00 in 0 W/m2
04:49 68.3 °F 61.9 °F 29.73 in Calm   1 mph 80% 0.00 in 0 W/m2
04:54 68.3 °F 61.9 °F 29.73 in SW 0.2 mph 4 mph 80% 0.00 in 0 W/m2
04:59 68.4 °F 62 °F 29.73 in Calm   4 mph 80% 0.00 in 0 W/m2
05:04 68.4 °F 62 °F 29.72 in Calm   4 mph 80% 0.00 in 0 W/m2
05:09 68.4 °F 62 °F 29.73 in Calm   2 mph 80% 0.00 in 0 W/m2
05:14 68.4 °F 62 °F 29.73 in Calm   2 mph 80% 0.00 in 0 W/m2
05:19 68.4 °F 61.9 °F 29.72 in SW 0.1 mph 3 mph 79.9% 0.00 in 0 W/m2
05:24 68.4 °F 62 °F 29.72 in Calm   3 mph 79.9% 0.00 in 0 W/m2
05:29 68.4 °F 61.7 °F 29.72 in Calm   3 mph 79.3% 0.00 in 7 W/m2
05:34 68.4 °F 61.8 °F 29.73 in Calm   3 mph 79.5% 0.00 in 9 W/m2
05:39 68.4 °F 61.7 °F 29.72 in Calm     79% 0.00 in 11 W/m2
05:44 68.4 °F 61.9 °F 29.72 in Calm     79.8% 0.00 in 11 W/m2
05:49 68.4 °F 61.7 °F 29.72 in Calm     79.2% 0.00 in 16 W/m2
05:54 68.4 °F 61.7 °F 29.72 in Calm     79% 0.00 in 18 W/m2
05:59 68.5 °F 61.7 °F 29.72 in Calm     79% 0.00 in 18 W/m2
06:04 68.5 °F 61.8 °F 29.72 in Calm     79% 0.00 in 16 W/m2
06:09 68.6 °F 61.8 °F 29.72 in Calm     78.8% 0.00 in 16 W/m2
06:14 68.7 °F 61.7 °F 29.71 in Calm     78.4% 0.00 in 28 W/m2
06:19 68.7 °F 61.8 °F 29.71 in Calm     78.5% 0.00 in 37 W/m2
06:24 68.8 °F 62 °F 29.71 in Calm     79% 0.00 in 42 W/m2
06:29 68.8 °F 62.2 °F 29.71 in Calm   1 mph 79.3% 0.00 in 44 W/m2
06:34 68.9 °F 62.1 °F 29.71 in Calm   1 mph 79% 0.00 in 42 W/m2
06:39 68.9 °F 62.2 °F 29.71 in SW 0.1 mph 1 mph 79% 0.00 in 47 W/m2
06:44 69 °F 62.2 °F 29.71 in Calm   1 mph 79% 0.00 in 65 W/m2
06:49 69 °F 62.2 °F 29.71 in Calm   1 mph 79% 0.00 in 69 W/m2
06:54 69.1 °F 62.7 °F 29.71 in Calm   1 mph 79.9% 0.00 in 102 W/m2
06:59 69.4 °F 62.9 °F 29.71 in Calm   1 mph 80% 0.00 in 130 W/m2
07:04 69.8 °F 63.3 °F 29.72 in SW 0.1 mph 3 mph 79.9% 0.00 in 134 W/m2
07:09 70.4 °F 63.5 °F 29.72 in SW 0.1 mph 3 mph 78.7% 0.00 in 123 W/m2
07:14 70.9 °F 63.3 °F 29.72 in Calm   3 mph 77.1% 0.00 in 90 W/m2
07:19 71.2 °F 63.6 °F 29.72 in SW 0.1 mph 3 mph 77% 0.00 in 90 W/m2
07:24 71.7 °F 64.1 °F 29.72 in SW 0.2 mph 5 mph 77% 0.00 in 199 W/m2
07:29 72.2 °F 64.2 °F 29.72 in SW 0.3 mph 5 mph 75.9% 0.00 in 283 W/m2
07:30 72.4 °F 64 °F 29.72 in Calm   5 mph 75% 0.00 in 283 W/m2
08:09 75.2 °F 65.1 °F 29.71 in SW 0.1 mph 2 mph 70.8% 0.00 in 422 W/m2
08:14 75.5 °F 65.3 °F 29.71 in Calm   2 mph 70.8% 0.00 in 443 W/m2
08:19 75.7 °F 65.7 °F 29.71 in Calm   2 mph 71% 0.00 in 468 W/m2
08:24 76.1 °F 66 °F 29.72 in SW 0.1 mph 2 mph 70.8% 0.00 in 455 W/m2
08:29 76.5 °F 66.3 °F 29.72 in SW 1 mph 7 mph 70.9% 0.00 in 445 W/m2
08:34 76.7 °F 66.5 °F 29.72 in WSW 0.5 mph 7 mph 70.7% 0.00 in 462 W/m2
08:39 77.1 °F 67 °F 29.72 in WSW 0.2 mph 6 mph 71% 0.00 in 501 W/m2
08:44 77.6 °F 67.4 °F 29.72 in WSW 0.7 mph 6 mph 70.8% 0.00 in 541 W/m2
08:49 77.9 °F 67.1 °F 29.71 in WSW 0.1 mph 6 mph 69.3% 0.00 in 529 W/m2
08:54 78.2 °F 67.3 °F 29.71 in WSW 0.4 mph 6 mph 69.3% 0.00 in 571 W/m2
08:59 78.5 °F 67.6 °F 29.71 in WSW 0.1 mph 6 mph 69.4% 0.00 in 599 W/m2
09:04 79 °F 68.1 °F 29.71 in Calm   6 mph 69.2% 0.00 in 629 W/m2
09:09 79.7 °F 68 °F 29.71 in WSW 0.1 mph 3 mph 67.5% 0.00 in 636 W/m2
09:14 80.2 °F 68 °F 29.71 in Calm   3 mph 66.5% 0.00 in 657 W/m2
09:19 80.7 °F 68.9 °F 29.71 in WSW 0.7 mph 5 mph 67.4% 0.00 in 694 W/m2
09:24 81.1 °F 68.4 °F 29.71 in WSW 0.3 mph 5 mph 65.4% 0.00 in 635 W/m2
09:29 81.4 °F 68.7 °F 29.71 in WSW 0.4 mph 6 mph 65.4% 0.00 in 684 W/m2
09:34 81.7 °F 68.8 °F 29.71 in WSW 0.1 mph 6 mph 65% 0.00 in 666 W/m2
09:39 81.9 °F 68.5 °F 29.71 in Calm   3 mph 63.9% 0.00 in 670 W/m2
09:44 82.1 °F 69 °F 29.70 in Calm   3 mph 64.6% 0.00 in 700 W/m2
09:49 82.4 °F 68.9 °F 29.70 in WSW 0.4 mph 10 mph 63.7% 0.00 in 786 W/m2
09:54 82.7 °F 68.8 °F 29.70 in WSW 0.4 mph 10 mph 63% 0.00 in 795 W/m2
09:59 82.9 °F 69 °F 29.70 in WSW 0.7 mph 10 mph 63.1% 0.00 in 772 W/m2
10:04 83.4 °F 69.6 °F 29.70 in WSW 0.6 mph 10 mph 63.3% 0.00 in 816 W/m2
10:09 83.9 °F 69.5 °F 29.71 in WSW 0.2 mph 6 mph 62% 0.00 in 816 W/m2
10:14 84.2 °F 69.7 °F 29.71 in WSW 0.9 mph 7 mph 61.9% 0.00 in 694 W/m2
10:19 84.3 °F 69.9 °F 29.70 in WSW 1 mph 7 mph 62% 0.00 in 724 W/m2
10:24 84.6 °F 70.1 °F 29.70 in WSW 1.1 mph 7 mph 61.8% 0.00 in 793 W/m2
10:29 84.9 °F 69.9 °F 29.70 in WSW 0.1 mph 7 mph 61% 0.00 in 814 W/m2
10:34 85.1 °F 70.2 °F 29.70 in WSW 0.8 mph 7 mph 61.1% 0.00 in 814 W/m2
10:39 85.4 °F 70.4 °F 29.70 in WSW 0.7 mph 6 mph 61% 0.00 in 828 W/m2
10:44 85.6 °F 70.1 °F 29.70 in WSW 0.6 mph 6 mph 60% 0.00 in 837 W/m2
10:49 85.9 °F 70.5 °F 29.70 in WSW 0.6 mph 6 mph 60.3% 0.00 in 849 W/m2
10:54 86.3 °F 71.2 °F 29.70 in WSW 0.1 mph 6 mph 60.9% 0.00 in 861 W/m2
10:59 86.8 °F 70 °F 29.69 in WSW 1.1 mph 6 mph 57.5% 0.00 in 868 W/m2
11:03 86.9 °F 70.5 °F 29.69 in WSW 0.2 mph 6 mph 58.4% 0.00 in 856 W/m2
11:30 89.2 °F 70.9 °F 29.69 in WSW 1 mph 5 mph 55% 0.00 in 846 W/m2
12:09 90.1 °F 71.2 °F 29.69 in West 2 mph 7 mph 53.8% 0.00 in 1051 W/m2
12:14 90.2 °F 71 °F 29.68 in WNW 0.6 mph 7 mph 53.5% 0.00 in 1051 W/m2
12:19 90.2 °F 71 °F 29.68 in West 2.7 mph 8 mph 53.4% 0.00 in 1065 W/m2
12:24 90.1 °F 71.3 °F 29.68 in West 0.9 mph 8 mph 54.2% 0.00 in 1044 W/m2
12:29 89.9 °F 70.9 °F 29.69 in West 1.3 mph 8 mph 53.8% 0.00 in 1021 W/m2
12:34 89.8 °F 70.4 °F 29.69 in West 0.6 mph 8 mph 53% 0.00 in 970 W/m2
12:39 89.6 °F 70.6 °F 29.69 in West 0.5 mph 4 mph 53.7% 0.00 in 970 W/m2
12:44 89.3 °F 69.5 °F 29.69 in WSW 3.4 mph 13 mph 52.2% 0.00 in 1074 W/m2
12:49 88.9 °F 69.7 °F 29.69 in West 1.9 mph 13 mph 53.4% 0.00 in 1041 W/m2
12:54 89 °F 70.3 °F 29.69 in West 1.2 mph 13 mph 54.2% 0.00 in 963 W/m2
12:59 89.3 °F 71.1 °F 29.69 in West 0.4 mph 13 mph 55.1% 0.00 in 606 W/m2
13:04 89.5 °F 70.5 °F 29.69 in West 1.2 mph 13 mph 53.7% 0.00 in 575 W/m2
13:09 89.3 °F 69.5 °F 29.69 in WNW 2.8 mph 9 mph 52.2% 0.00 in 299 W/m2
13:14 89 °F 70.5 °F 29.69 in Calm   9 mph 54.4% 0.00 in 744 W/m2
13:19 89 °F 71.1 °F 29.69 in West 1.2 mph 9 mph 55.7% 0.00 in 1002 W/m2
13:24 89.1 °F 70.4 °F 29.68 in WSW 1.1 mph 9 mph 54.1% 0.00 in 1002 W/m2
13:29 89.4 °F 70.7 °F 29.68 in West 1.4 mph 9 mph 54.1% 0.00 in 1034 W/m2
13:34 89.9 °F 70.9 °F 29.69 in WSW 1.1 mph 9 mph 53.7% 0.00 in 1039 W/m2
13:39 90.3 °F 70.5 °F 29.68 in WSW 0.1 mph 6 mph 52.4% 0.00 in 1039 W/m2
13:44 90.5 °F 69.5 °F 29.68 in WNW 1.9 mph 6 mph 50.3% 0.00 in 1041 W/m2
13:49 90.4 °F 69.3 °F 29.68 in West 2.2 mph 8 mph 50% 0.00 in 1041 W/m2
13:54 90.5 °F 69.9 °F 29.68 in WNW 1.2 mph 8 mph 50.9% 0.00 in 1028 W/m2
13:59 90.3 °F 68.9 °F 29.68 in West 1.1 mph 8 mph 49.6% 0.00 in 241 W/m2
14:04 90 °F 68.7 °F 29.68 in West 0.7 mph 8 mph 49.7% 0.00 in 933 W/m2
14:09 89.9 °F 69.2 °F 29.68 in WSW 1.4 mph 7 mph 50.8% 0.00 in 933 W/m2
14:14 89.8 °F 68.7 °F 29.68 in West 1.1 mph 7 mph 50% 0.00 in 207 W/m2
14:19 89.8 °F 68.5 °F 29.68 in WSW 3 mph 7 mph 49.7% 0.00 in 867 W/m2
14:24 90 °F 68.6 °F 29.68 in SW 1.5 mph 7 mph 49.5% 0.00 in 867 W/m2
14:29 90.2 °F 68.5 °F 29.68 in West 2.3 mph 9 mph 49.1% 0.00 in 842 W/m2
14:34 90.4 °F 68.8 °F 29.68 in West 0.9 mph 9 mph 49.3% 0.00 in 719 W/m2
14:39 90.3 °F 68.2 °F 29.68 in WNW 2.4 mph 7 mph 48.4% 0.00 in 209 W/m2
14:44 90 °F 68.7 °F 29.68 in West 2.8 mph 7 mph 49.6% 0.00 in 775 W/m2
14:49 89.9 °F 67.8 °F 29.67 in WSW 3.1 mph 8 mph 48.3% 0.00 in 775 W/m2
14:54 89.9 °F 67.2 °F 29.67 in WNW 2.4 mph 9 mph 47.4% 0.00 in 364 W/m2
14:59 89.7 °F 67.7 °F 29.68 in WNW 1.3 mph 9 mph 48.5% 0.00 in 399 W/m2
15:04 89.5 °F 68.3 °F 29.67 in West 2.7 mph 9 mph 49.8% 0.00 in 399 W/m2
15:09 89.4 °F 67.9 °F 29.67 in West 0.9 mph 7 mph 49.3% 0.00 in 373 W/m2
15:14 89.4 °F 68.6 °F 29.67 in West 2.2 mph 7 mph 50.5% 0.00 in 230 W/m2
15:19 89.2 °F 68.7 °F 29.67 in West 1.2 mph 7 mph 51% 0.00 in 213 W/m2
15:24 89 °F 68.7 °F 29.67 in West 1.3 mph 7 mph 51.3% 0.00 in 134 W/m2
15:29 88.6 °F 68.1 °F 29.67 in WNW 1.1 mph 10 mph 51% 0.00 in 90 W/m2
15:34 88.1 °F 68.4 °F 29.67 in WNW 0.3 mph 10 mph 52.2% 0.00 in 97 W/m2
15:39 87.6 °F 67.7 °F 29.67 in WNW 2.3 mph 6 mph 51.7% 0.00 in 95 W/m2
15:44 87.1 °F 66.9 °F 29.67 in NW 1.6 mph 9 mph 51.2% 0.00 in 67 W/m2
15:49 86.5 °F 67.3 °F 29.67 in NW 1.7 mph 9 mph 52.8% 0.00 in 44 W/m2
15:54 86 °F 67.9 °F 29.67 in WNW 2.3 mph 9 mph 54.9% 0.00 in 53 W/m2
15:59 85.3 °F 68.7 °F 29.67 in NW 2.4 mph 10 mph 57.7% 0.00 in 83 W/m2
16:00 84.9 °F 69 °F 29.67 in Calm   10 mph 59% 0.00 in 83 W/m2
16:09 84 °F 70.4 °F 29.68 in NW 2 mph 6 mph 63.7% 0.03 in 95 W/m2
16:14 83.3 °F 72.2 °F 29.69 in NW 1.4 mph 6 mph 69.1% 0.10 in 39 W/m2
16:19 82.1 °F 72.1 °F 29.69 in WNW 0.2 mph 6 mph 72% 0.28 in 44 W/m2
16:24 80.4 °F 71.3 °F 29.68 in WNW 0.1 mph 6 mph 73.8% 0.35 in 39 W/m2
16:29 78.6 °F 70.1 °F 29.67 in Calm   6 mph 75.1% 0.37 in 39 W/m2
16:34 77 °F 69.5 °F 29.67 in WNW 0.2 mph 6 mph 77.8% 0.38 in 51 W/m2
16:39 75.9 °F 69.5 °F 29.66 in WNW 0.1 mph 3 mph 80.5% 0.38 in 121 W/m2
16:44 75 °F 69.2 °F 29.66 in Calm   3 mph 82.1% 0.38 in 135 W/m2
16:49 74.8 °F 70.3 °F 29.66 in Calm   3 mph 86.1% 0.38 in 125 W/m2
16:54 74.6 °F 70 °F 29.67 in Calm   3 mph 85.7% 0.38 in 121 W/m2
16:59 74.5 °F 70.4 °F 29.67 in WNW 0.1 mph 3 mph 87.2% 0.38 in 128 W/m2
17:04 74.6 °F 70.8 °F 29.67 in Calm   3 mph 88% 0.38 in 120 W/m2
17:09 74.6 °F 71 °F 29.67 in Calm     88.5% 0.01 in 98 W/m2
17:14 74.7 °F 71.3 °F 29.66 in Calm     89% 0.01 in 109 W/m2
17:19 75 °F 71.8 °F 29.66 in Calm     90% 0.01 in 121 W/m2
17:24 75.1 °F 72 °F 29.66 in Calm     90% 0.01 in 135 W/m2
17:29 75.3 °F 72.1 °F 29.66 in Calm     90% 0.01 in 137 W/m2
17:34 75.4 °F 72.1 °F 29.66 in Calm     89.5% 0.01 in 123 W/m2
17:39 75.5 °F 72.4 °F 29.66 in Calm     90% 0.01 in 116 W/m2
17:44 75.7 °F 72.6 °F 29.66 in Calm     90% 0.01 in 98 W/m2
17:48 75.9 °F 72.8 °F 29.65 in Calm     90% 0.01 in 90 W/m2
17:54 76.2 °F 73.1 °F 29.66 in Calm     90% 0.01 in 111 W/m2
17:59 76.4 °F 73.3 °F 29.66 in Calm     90% 0.01 in 104 W/m2
18:04 76.6 °F 73.4 °F 29.65 in Calm     90% 0.01 in 81 W/m2
18:09 76.7 °F 73.5 °F 29.65 in Calm     90% 0.00 in 67 W/m2
18:14 76.8 °F 73.6 °F 29.65 in Calm     90% 0.00 in 70 W/m2
18:19 76.9 °F 73.7 °F 29.65 in Calm     90% 0.00 in 86 W/m2
18:24 76.9 °F 73.8 °F 29.66 in Calm     90% 0.00 in 91 W/m2
18:29 77.1 °F 74 °F 29.66 in Calm     90.1% 0.00 in 84 W/m2
18:34 77.3 °F 74.5 °F 29.66 in Calm     91% 0.00 in 42 W/m2
18:39 77.5 °F 74.6 °F 29.66 in Calm     91% 0.00 in 32 W/m2
18:44 77.5 °F 74.4 °F 29.67 in Calm     90.3% 0.00 in 23 W/m2
18:49 77.4 °F 74.2 °F 29.67 in Calm   1 mph 90% 0.00 in 23 W/m2
18:54 77.4 °F 74.2 °F 29.67 in Calm   1 mph 90% 0.00 in 18 W/m2
18:59 77.4 °F 74.2 °F 29.67 in Calm   1 mph 90% 0.00 in 25 W/m2
19:04 77.4 °F 74.2 °F 29.67 in Calm   1 mph 90% 0.00 in 28 W/m2
19:09 77.4 °F 74.2 °F 29.67 in Calm     90% 0.00 in 30 W/m2
19:14 77.4 °F 74.5 °F 29.68 in Calm     90.8% 0.00 in 28 W/m2
19:19 77.4 °F 74.6 °F 29.68 in Calm     91% 0.00 in 26 W/m2
19:24 77.5 °F 74.7 °F 29.68 in Calm     91% 0.00 in 21 W/m2
19:29 77.6 °F 74.8 °F 29.68 in Calm     91% 0.00 in 18 W/m2
19:34 77.6 °F 74.8 °F 29.68 in Calm     91% 0.00 in 12 W/m2
19:39 77.6 °F 74.8 °F 29.68 in Calm     91% 0.00 in 5 W/m2
19:44 77.6 °F 74.8 °F 29.68 in Calm     91% 0.00 in 14 W/m2
19:49 77.5 °F 74.7 °F 29.68 in Calm     91% 0.00 in 16 W/m2
19:54 77.5 °F 74.7 °F 29.68 in Calm     91% 0.00 in 9 W/m2
19:59 77.4 °F 74.6 °F 29.68 in Calm     91% 0.00 in 5 W/m2
20:00 77.3 °F 74.5 °F 29.67 in Calm     91% 0.00 in 0 W/m2
20:09 77.2 °F 74.4 °F 29.68 in Calm     91% 0.00 in 0 W/m2
20:14 77.2 °F 74.5 °F 29.68 in Calm     91.5% 0.01 in 0 W/m2
20:19 77 °F 74.2 °F 29.68 in Calm     91% 0.01 in 0 W/m2
20:24 76.8 °F 74 °F 29.69 in Calm     91% 0.01 in 0 W/m2
20:28 76.7 °F 73.8 °F 29.70 in Calm     91% 0.01 in 0 W/m2
20:34 76.5 °F 73.7 °F 29.71 in Calm     91% 0.01 in 0 W/m2
20:39 76.4 °F 73.8 °F 29.71 in NW 2 mph 13 mph 91.7% 0.03 in 0 W/m2
20:44 75.2 °F 70.4 °F 29.72 in WNW 1.4 mph 13 mph 84.9% 0.03 in 0 W/m2
20:49 74.1 °F 68.4 °F 29.72 in SW 0.1 mph 13 mph 82.3% 0.04 in 0 W/m2
20:54 73.3 °F 67.8 °F 29.72 in Calm   13 mph 82.8% 0.07 in 0 W/m2
20:59 72.5 °F 66.8 °F 29.72 in Calm   13 mph 82.4% 0.07 in 0 W/m2
21:04 71.7 °F 66.4 °F 29.72 in Calm   13 mph 83.4% 0.07 in 0 W/m2
21:09 71.1 °F 66.3 °F 29.72 in Calm   1 mph 85% 0.07 in 0 W/m2
21:14 70.3 °F 65.6 °F 29.73 in Calm   1 mph 85% 0.07 in 0 W/m2
21:19 69.7 °F 64.9 °F 29.73 in Calm   1 mph 85% 0.07 in 0 W/m2
21:24 69.2 °F 64.8 °F 29.73 in Calm   1 mph 86% 0.07 in 0 W/m2
21:29 68.7 °F 64.5 °F 29.74 in SSW 0.1 mph 2 mph 86.6% 0.07 in 0 W/m2
21:33 68.4 °F 64.4 °F 29.74 in Calm   2 mph 87.2% 0.07 in 0 W/m2
Hartford County Weather
Compliments of Weather Underground - 4 mb